createdAt,value
2022-11-23T00:00:38.752Z,2.60
2022-11-23T00:03:05.959Z,2.60
2022-11-23T00:05:34.914Z,2.60
2022-11-23T00:08:02.230Z,2.60
2022-11-23T00:10:29.264Z,2.60
2022-11-23T00:12:56.367Z,2.70
2022-11-23T00:15:23.465Z,2.60
2022-11-23T00:17:50.591Z,2.70
2022-11-23T00:20:17.750Z,2.70
2022-11-23T00:22:44.894Z,2.70
2022-11-23T00:25:11.981Z,2.70
2022-11-23T00:27:39.066Z,2.70
2022-11-23T00:30:06.568Z,2.70
2022-11-23T00:32:33.683Z,2.70
2022-11-23T00:35:00.741Z,2.70
2022-11-23T00:37:27.936Z,2.80
2022-11-23T00:39:55.167Z,2.80
2022-11-23T00:42:22.280Z,2.80
2022-11-23T00:44:49.478Z,2.80
2022-11-23T00:47:16.627Z,2.80
2022-11-23T00:49:43.681Z,2.80
2022-11-23T00:52:10.805Z,2.80
2022-11-23T00:54:38.006Z,2.80
2022-11-23T00:57:05.220Z,2.80
2022-11-23T00:59:32.566Z,2.90
2022-11-23T01:02:00.773Z,2.90
2022-11-23T01:04:29.243Z,2.90
2022-11-23T01:06:59.557Z,2.90
2022-11-23T01:09:27.001Z,2.90
2022-11-23T01:11:54.822Z,2.90
2022-11-23T01:14:24.462Z,2.90
2022-11-23T01:16:51.688Z,3.00
2022-11-23T01:19:20.711Z,3.00
2022-11-23T01:21:49.661Z,3.00
2022-11-23T01:24:20.103Z,3.00
2022-11-23T01:26:52.657Z,3.00
2022-11-23T01:29:21.168Z,3.00
2022-11-23T01:31:48.227Z,3.00
2022-11-23T01:34:16.390Z,3.00
2022-11-23T01:36:44.160Z,3.00
2022-11-23T01:39:12.713Z,3.10
2022-11-23T01:41:42.236Z,3.10
2022-11-23T01:44:30.846Z,3.10
2022-11-23T01:47:01.083Z,3.10
2022-11-23T01:49:35.630Z,3.10
2022-11-23T01:52:10.033Z,3.10
2022-11-23T01:54:42.547Z,3.10
2022-11-23T01:57:17.754Z,3.20
2022-11-23T01:59:46.389Z,3.20
2022-11-23T02:02:15.179Z,3.20
2022-11-23T02:04:46.051Z,3.20
2022-11-23T02:07:16.771Z,3.20
2022-11-23T02:09:46.787Z,3.20
2022-11-23T02:12:14.996Z,3.30
2022-11-23T02:14:44.237Z,3.30
2022-11-23T02:17:11.473Z,3.30
2022-11-23T02:19:58.371Z,3.30
2022-11-23T02:22:37.952Z,3.30
2022-11-23T02:25:12.415Z,3.40
2022-11-23T02:27:46.632Z,3.30
2022-11-23T02:30:14.124Z,3.30
2022-11-23T02:32:42.528Z,3.30
2022-11-23T02:35:11.607Z,3.40
2022-11-23T02:37:40.059Z,3.30
2022-11-23T02:40:35.303Z,3.40
2022-11-23T02:43:03.262Z,3.40
2022-11-23T02:45:46.925Z,3.40
2022-11-23T02:48:14.119Z,3.40
2022-11-23T02:50:41.505Z,3.40
2022-11-23T02:53:08.863Z,3.40
2022-11-23T02:55:36.316Z,3.40
2022-11-23T02:58:05.424Z,3.40
2022-11-23T03:00:33.528Z,3.40
2022-11-23T03:03:02.222Z,3.40
2022-11-23T03:05:29.451Z,3.50
2022-11-23T03:07:56.628Z,3.40
2022-11-23T03:10:23.772Z,3.50
2022-11-23T03:12:56.511Z,3.50
2022-11-23T03:15:25.133Z,3.50
2022-11-23T03:17:52.947Z,3.50
2022-11-23T03:20:21.087Z,3.50
2022-11-23T03:22:50.661Z,3.50
2022-11-23T03:25:19.677Z,3.50
2022-11-23T03:27:50.212Z,3.50
2022-11-23T03:30:18.803Z,3.50
2022-11-23T03:32:46.032Z,3.50
2022-11-23T03:35:13.239Z,3.50
2022-11-23T03:37:59.957Z,3.60
2022-11-23T03:40:27.968Z,3.60
2022-11-23T03:43:08.666Z,3.60
2022-11-23T03:45:35.920Z,3.60
2022-11-23T03:48:02.977Z,3.60
2022-11-23T03:50:31.391Z,3.60
2022-11-23T03:52:59.819Z,3.70
2022-11-23T03:55:28.199Z,3.70
2022-11-23T03:57:59.658Z,3.70
2022-11-23T04:00:31.072Z,3.70
2022-11-23T04:02:58.800Z,3.70
2022-11-23T04:05:46.095Z,3.70
2022-11-23T04:08:33.057Z,3.70
2022-11-23T04:11:00.719Z,3.70
2022-11-23T04:13:37.665Z,3.70
2022-11-23T04:16:07.361Z,3.70
2022-11-23T04:18:34.822Z,3.70
2022-11-23T04:21:02.037Z,3.70
2022-11-23T04:23:29.112Z,3.70
2022-11-23T04:25:56.654Z,3.70
2022-11-23T04:28:24.773Z,3.70
2022-11-23T04:30:53.248Z,3.80
2022-11-23T04:33:20.308Z,3.80
2022-11-23T04:35:47.444Z,3.80
2022-11-23T04:38:15.538Z,3.70
2022-11-23T04:40:43.205Z,3.80
2022-11-23T04:43:11.369Z,3.80
2022-11-23T04:45:40.791Z,3.80
2022-11-23T04:48:14.548Z,3.80
2022-11-23T04:50:46.489Z,3.80
2022-11-23T04:53:17.855Z,3.80
2022-11-23T04:55:47.596Z,3.80
2022-11-23T04:58:16.231Z,3.80
2022-11-23T05:00:43.392Z,3.80
2022-11-23T05:03:12.298Z,3.80
2022-11-23T05:05:42.163Z,3.80
2022-11-23T05:08:10.229Z,3.80
2022-11-23T05:10:57.924Z,3.80
2022-11-23T05:13:28.221Z,3.80
2022-11-23T05:15:57.549Z,3.80
2022-11-23T05:18:28.270Z,3.80
2022-11-23T05:20:55.393Z,3.80
2022-11-23T05:23:22.743Z,3.80
2022-11-23T05:25:52.551Z,3.90
2022-11-23T05:28:39.630Z,3.80
2022-11-23T05:31:09.933Z,3.80
2022-11-23T05:33:37.933Z,3.80
2022-11-23T05:36:07.248Z,3.80
2022-11-23T05:38:38.525Z,3.80
2022-11-23T05:41:12.091Z,3.80
2022-11-23T05:43:42.770Z,3.80
2022-11-23T05:46:15.910Z,3.80
2022-11-23T05:48:43.390Z,3.80
2022-11-23T05:51:11.699Z,3.80
2022-11-23T05:53:44.866Z,3.80
2022-11-23T05:56:23.529Z,3.80
2022-11-23T05:59:05.493Z,3.80
2022-11-23T06:01:35.778Z,3.80
2022-11-23T06:04:06.950Z,3.80
2022-11-23T06:06:40.182Z,3.80
2022-11-23T06:09:07.484Z,3.80
2022-11-23T06:11:37.027Z,3.80
2022-11-23T06:14:14.157Z,3.80
2022-11-23T06:16:43.854Z,3.80
2022-11-23T06:19:20.677Z,3.80
2022-11-23T06:21:50.507Z,3.80
2022-11-23T06:24:20.456Z,3.80
2022-11-23T06:26:58.365Z,3.80
2022-11-23T06:29:26.354Z,3.80
2022-11-23T06:31:54.507Z,3.80
2022-11-23T06:34:21.743Z,3.80
2022-11-23T06:36:49.307Z,3.80
2022-11-23T06:39:16.807Z,3.80
2022-11-23T06:41:44.103Z,3.80
2022-11-23T06:44:12.713Z,3.80
2022-11-23T06:46:43.130Z,3.90
2022-11-23T06:49:10.403Z,3.80
2022-11-23T06:51:38.195Z,3.90
2022-11-23T06:54:05.464Z,3.90
2022-11-23T06:56:32.766Z,3.90
2022-11-23T06:59:00.549Z,3.90
2022-11-23T07:01:28.064Z,3.90
2022-11-23T07:04:01.038Z,4.00
2022-11-23T07:06:33.229Z,4.00
2022-11-23T07:09:05.658Z,3.90
2022-11-23T07:11:44.724Z,4.00
2022-11-23T07:14:12.552Z,3.90
2022-11-23T07:16:43.440Z,3.90
2022-11-23T07:19:11.136Z,4.00
2022-11-23T07:21:38.234Z,3.90
2022-11-23T07:24:06.019Z,3.90
2022-11-23T07:26:33.271Z,3.90
2022-11-23T07:29:01.107Z,4.00
2022-11-23T07:31:28.443Z,4.00
2022-11-23T07:33:55.611Z,4.00
2022-11-23T07:36:22.995Z,4.10
2022-11-23T07:38:50.782Z,4.10
2022-11-23T07:41:20.315Z,4.10
2022-11-23T07:44:07.473Z,4.10
2022-11-23T07:46:34.641Z,4.20
2022-11-23T07:49:02.537Z,4.20
2022-11-23T07:51:30.298Z,4.20
2022-11-23T07:53:57.685Z,4.30
2022-11-23T07:56:24.990Z,4.30
2022-11-23T07:58:52.176Z,4.40
2022-11-23T08:01:20.253Z,4.40
2022-11-23T08:03:48.550Z,4.30
2022-11-23T08:06:16.888Z,4.30
2022-11-23T08:08:44.402Z,4.40
2022-11-23T08:11:14.826Z,4.40
2022-11-23T08:13:42.025Z,4.50
2022-11-23T08:16:09.279Z,4.40
2022-11-23T08:18:36.731Z,4.40
2022-11-23T08:21:03.987Z,4.40
2022-11-23T08:23:31.235Z,4.40
2022-11-23T08:25:58.476Z,4.40
2022-11-23T08:28:25.472Z,4.40
2022-11-23T08:30:52.530Z,4.40
2022-11-23T08:33:19.654Z,4.40
2022-11-23T08:35:46.788Z,4.50
2022-11-23T08:38:14.051Z,4.60
2022-11-23T08:40:41.280Z,4.60
2022-11-23T08:43:08.552Z,4.70
2022-11-23T08:45:35.811Z,4.70
2022-11-23T08:48:04.290Z,4.80
2022-11-23T08:50:32.435Z,4.80
2022-11-23T08:53:00.292Z,4.80
2022-11-23T08:55:28.858Z,4.90
2022-11-23T08:57:58.845Z,4.90
2022-11-23T09:00:27.572Z,5.00
2022-11-23T09:02:54.800Z,5.00
2022-11-23T09:05:21.945Z,5.00
2022-11-23T09:07:49.089Z,5.00
2022-11-23T09:10:19.083Z,5.00
2022-11-23T09:12:47.848Z,5.10
2022-11-23T09:15:15.488Z,5.20
2022-11-23T09:17:43.181Z,5.20
2022-11-23T09:20:10.874Z,5.30
2022-11-23T09:22:38.830Z,5.30
2022-11-23T09:25:07.294Z,5.30
2022-11-23T09:27:34.565Z,5.30
2022-11-23T09:30:01.919Z,5.30
2022-11-23T09:32:29.383Z,5.40
2022-11-23T09:34:56.438Z,5.50
2022-11-23T09:37:23.616Z,5.50
2022-11-23T09:39:50.717Z,5.50
2022-11-23T09:42:37.796Z,5.60
2022-11-23T09:45:11.812Z,5.60
2022-11-23T09:48:02.349Z,5.60
2022-11-23T09:50:41.276Z,5.60
2022-11-23T09:53:16.530Z,5.60
2022-11-23T09:55:47.277Z,5.60
2022-11-23T09:58:17.994Z,5.60
2022-11-23T10:00:48.408Z,5.60
2022-11-23T10:03:17.718Z,5.70
2022-11-23T10:05:58.515Z,5.60
2022-11-23T10:08:32.679Z,5.60
2022-11-23T10:11:31.751Z,5.60
2022-11-23T10:14:09.239Z,5.70
2022-11-23T10:17:06.089Z,5.60
2022-11-23T10:19:37.634Z,5.60
2022-11-23T10:22:14.313Z,5.50
2022-11-23T10:24:47.951Z,5.50
2022-11-23T10:27:18.414Z,5.60
2022-11-23T10:29:45.611Z,5.70
2022-11-23T10:32:39.888Z,5.70
2022-11-23T10:35:17.387Z,5.80
2022-11-23T10:37:44.906Z,5.90
2022-11-23T10:40:29.673Z,5.90
2022-11-23T10:43:01.275Z,6.00
2022-11-23T10:45:30.929Z,6.10
2022-11-23T10:48:00.091Z,6.10
2022-11-23T10:50:30.558Z,6.20
2022-11-23T10:53:01.256Z,6.10
2022-11-23T10:55:31.567Z,6.20
2022-11-23T10:57:59.098Z,6.20
2022-11-23T11:00:30.954Z,6.20
2022-11-23T11:02:59.693Z,6.20
2022-11-23T11:06:06.925Z,6.20
2022-11-23T11:08:20.965Z,6.30
2022-11-23T11:10:50.308Z,6.30
2022-11-23T11:13:46.269Z,6.30
2022-11-23T11:16:16.877Z,6.30
2022-11-23T11:18:44.194Z,6.40
2022-11-23T11:21:32.847Z,6.40
2022-11-23T11:24:02.062Z,6.50
2022-11-23T11:26:31.476Z,6.50
2022-11-23T11:29:02.300Z,6.60
2022-11-23T11:31:35.647Z,6.60
2022-11-23T11:34:11.162Z,6.60
2022-11-23T11:37:00.838Z,6.60
2022-11-23T11:39:35.317Z,6.70
2022-11-23T11:42:06.724Z,6.80
2022-11-23T11:44:39.175Z,6.80
2022-11-23T11:47:22.506Z,6.80
2022-11-23T11:49:52.671Z,6.80
2022-11-23T11:52:24.995Z,6.80
2022-11-23T11:54:56.011Z,6.80
2022-11-23T11:57:41.579Z,6.80
2022-11-23T12:00:15.695Z,6.80
2022-11-23T12:02:57.320Z,6.80
2022-11-23T12:05:32.875Z,6.80
2022-11-23T12:08:14.481Z,6.80
2022-11-23T12:10:48.500Z,6.80
2022-11-23T12:13:19.850Z,6.80
2022-11-23T12:15:54.377Z,6.80
2022-11-23T12:18:27.105Z,6.80
2022-11-23T12:21:01.863Z,6.80
2022-11-23T12:23:36.507Z,6.80
2022-11-23T12:26:23.903Z,6.90
2022-11-23T12:29:03.496Z,7.00
2022-11-23T12:31:50.042Z,7.10
2022-11-23T12:34:38.619Z,7.10
2022-11-23T12:37:25.569Z,7.10
2022-11-23T12:39:57.792Z,7.20
2022-11-23T12:42:35.335Z,7.20
2022-11-23T12:45:04.592Z,7.10
2022-11-23T12:47:36.079Z,7.20
2022-11-23T12:50:04.225Z,7.20
2022-11-23T12:52:47.867Z,7.20
2022-11-23T12:55:45.969Z,7.20
2022-11-23T12:58:13.067Z,7.20
2022-11-23T13:00:47.048Z,7.20
2022-11-23T13:03:45.075Z,7.20
2022-11-23T13:06:31.072Z,7.20
2022-11-23T13:09:13.981Z,7.20
2022-11-23T13:11:53.639Z,7.20
2022-11-23T13:14:28.338Z,7.20
2022-11-23T13:17:02.924Z,7.10
2022-11-23T13:19:30.069Z,7.10
2022-11-23T13:21:58.042Z,7.20
2022-11-23T13:24:25.317Z,7.20
2022-11-23T13:27:13.370Z,7.20
2022-11-23T13:29:58.926Z,7.10
2022-11-23T13:32:43.148Z,7.10
2022-11-23T13:35:17.877Z,7.10
2022-11-23T13:38:01.056Z,7.10
2022-11-23T13:40:30.449Z,7.10
2022-11-23T13:43:04.173Z,7.10
2022-11-23T13:45:36.779Z,7.00
2022-11-23T13:48:19.296Z,7.00
2022-11-23T13:50:51.710Z,6.90
2022-11-23T13:53:29.849Z,6.90
2022-11-23T13:56:15.485Z,6.90
2022-11-23T13:58:52.865Z,6.80
2022-11-23T14:01:59.885Z,6.80
2022-11-23T14:04:29.642Z,6.80
2022-11-23T14:07:15.998Z,6.80
2022-11-23T14:09:50.113Z,6.80
2022-11-23T14:12:21.098Z,6.70
2022-11-23T14:15:08.375Z,6.70
2022-11-23T14:17:58.704Z,6.60
2022-11-23T14:20:49.467Z,6.60
2022-11-23T14:23:56.406Z,6.50
2022-11-23T14:26:23.728Z,6.50
2022-11-23T14:29:28.753Z,6.40
2022-11-23T14:31:56.994Z,6.40
2022-11-23T14:34:45.385Z,6.30
2022-11-23T14:37:36.626Z,6.20
2022-11-23T14:40:14.964Z,6.20
2022-11-23T14:42:50.911Z,6.10
2022-11-23T14:45:21.529Z,6.10
2022-11-23T14:47:48.966Z,6.00
2022-11-23T14:50:22.399Z,6.00
2022-11-23T14:52:50.263Z,6.00
2022-11-23T14:55:23.307Z,6.00
2022-11-23T14:57:54.362Z,6.00
2022-11-23T15:00:30.554Z,6.00
2022-11-23T15:03:27.202Z,5.90
2022-11-23T15:05:58.707Z,5.90
2022-11-23T15:08:30.353Z,5.90
2022-11-23T15:11:09.938Z,6.00
2022-11-23T15:13:55.405Z,5.90
2022-11-23T15:16:22.657Z,5.90
2022-11-23T15:18:50.314Z,5.80
2022-11-23T15:21:26.890Z,5.80
2022-11-23T15:23:57.479Z,5.80
2022-11-23T15:29:38.350Z,5.70
2022-11-23T15:32:30.666Z,5.70
2022-11-23T15:35:04.398Z,5.60
2022-11-23T15:37:33.473Z,5.70
2022-11-23T15:40:00.994Z,5.60
2022-11-23T15:42:28.729Z,5.60
2022-11-23T15:44:56.197Z,5.60
2022-11-23T15:47:29.065Z,5.60
2022-11-23T15:50:02.832Z,5.50
2022-11-23T15:52:35.881Z,5.50
2022-11-23T15:55:09.665Z,5.50
2022-11-23T15:57:39.726Z,5.50
2022-11-23T16:00:07.630Z,5.50
2022-11-23T16:02:41.144Z,5.50
2022-11-23T16:05:11.623Z,5.40
2022-11-23T16:07:59.757Z,5.40
2022-11-23T16:10:29.123Z,5.40
2022-11-23T16:12:59.511Z,5.30
2022-11-23T16:15:42.363Z,5.30
2022-11-23T16:18:18.087Z,5.20
2022-11-23T16:20:47.718Z,5.20
2022-11-23T16:23:21.775Z,5.10
2022-11-23T16:26:00.057Z,5.10
2022-11-23T16:28:30.613Z,5.00
2022-11-23T16:30:58.461Z,4.80
2022-11-23T16:33:26.405Z,4.80
2022-11-23T16:35:53.573Z,4.70
2022-11-23T16:38:20.845Z,4.60
2022-11-23T16:40:48.281Z,4.60
2022-11-23T16:43:17.212Z,4.50
2022-11-23T16:45:46.799Z,4.40
2022-11-23T16:48:30.739Z,4.40
2022-11-23T16:50:57.989Z,4.30
2022-11-23T16:53:30.216Z,4.30
2022-11-23T16:55:58.526Z,4.20
2022-11-23T16:58:30.333Z,4.20
2022-11-23T17:00:57.705Z,4.20
2022-11-23T17:03:25.130Z,4.10
2022-11-23T17:05:52.395Z,4.20
2022-11-23T17:08:23.707Z,4.20
2022-11-23T17:10:51.871Z,4.30
2022-11-23T17:13:29.095Z,4.30
2022-11-23T17:15:56.418Z,4.20
2022-11-23T17:18:23.536Z,4.20
2022-11-23T17:20:50.613Z,4.20
2022-11-23T17:23:18.403Z,4.20
2022-11-23T17:25:45.536Z,4.20
2022-11-23T17:28:17.212Z,4.20
2022-11-23T17:30:44.608Z,4.20
2022-11-23T17:33:12.399Z,4.20
2022-11-23T17:35:40.296Z,4.20
2022-11-23T17:38:14.354Z,4.20
2022-11-23T17:40:42.160Z,4.30
2022-11-23T17:43:14.283Z,4.30
2022-11-23T17:45:42.855Z,4.30
2022-11-23T17:48:12.976Z,4.30
2022-11-23T17:50:40.118Z,4.30
2022-11-23T17:53:09.244Z,4.30
2022-11-23T17:55:36.533Z,4.30
2022-11-23T17:58:04.103Z,4.30
2022-11-23T18:00:32.390Z,4.30
2022-11-23T18:02:59.970Z,4.30
2022-11-23T18:05:27.602Z,4.30
2022-11-23T18:07:54.810Z,4.20
2022-11-23T18:10:22.674Z,4.20
2022-11-23T18:12:49.713Z,4.10
2022-11-23T18:15:16.903Z,4.00
2022-11-23T18:17:44.329Z,4.00
2022-11-23T18:20:12.020Z,3.90
2022-11-23T18:22:39.454Z,3.90
2022-11-23T18:25:07.192Z,3.90
2022-11-23T18:27:34.582Z,3.80
2022-11-23T18:30:02.089Z,3.80
2022-11-23T18:32:29.404Z,3.80
2022-11-23T18:34:56.701Z,3.70
2022-11-23T18:37:23.919Z,3.70
2022-11-23T18:39:51.100Z,3.70
2022-11-23T18:42:18.605Z,3.70
2022-11-23T18:44:45.796Z,3.70
2022-11-23T18:47:12.983Z,3.60
2022-11-23T18:49:40.034Z,3.60
2022-11-23T18:52:09.196Z,3.70
2022-11-23T18:54:36.224Z,3.70
2022-11-23T18:57:03.453Z,3.70
2022-11-23T19:02:17.660Z,3.80
2022-11-23T19:04:50.160Z,3.80
2022-11-23T19:07:23.534Z,3.90
2022-11-23T19:09:53.896Z,3.90
2022-11-23T19:12:21.431Z,3.90
2022-11-23T19:14:49.982Z,3.90
2022-11-23T19:17:17.759Z,3.90
2022-11-23T19:19:45.370Z,3.90
2022-11-23T19:22:13.105Z,3.90
2022-11-23T19:24:40.834Z,3.90
2022-11-23T19:27:08.266Z,3.90
2022-11-23T19:29:36.379Z,3.90
2022-11-23T19:32:04.709Z,3.90
2022-11-23T19:34:32.422Z,3.90
2022-11-23T19:37:00.273Z,3.90
2022-11-23T19:39:27.688Z,3.90
2022-11-23T19:41:55.324Z,3.80
2022-11-23T19:44:22.958Z,3.70
2022-11-23T19:46:50.740Z,3.70
2022-11-23T19:49:18.765Z,3.60
2022-11-23T19:51:47.623Z,3.60
2022-11-23T19:54:14.874Z,3.60
2022-11-23T19:56:42.186Z,3.50
2022-11-23T19:59:09.691Z,3.50
2022-11-23T20:01:37.100Z,3.50
2022-11-23T20:04:09.328Z,3.50
2022-11-23T20:06:38.434Z,3.50
2022-11-23T20:09:08.156Z,3.50
2022-11-23T20:11:36.329Z,3.50
2022-11-23T20:14:03.992Z,3.50
2022-11-23T20:16:33.078Z,3.60
2022-11-23T20:19:02.940Z,3.50
2022-11-23T20:21:32.281Z,3.50
2022-11-23T20:24:05.540Z,3.50
2022-11-23T20:26:36.176Z,3.50
2022-11-23T20:29:05.249Z,3.40
2022-11-23T20:31:33.745Z,3.40
2022-11-23T20:34:03.298Z,3.40
2022-11-23T20:36:35.952Z,3.30
2022-11-23T20:39:05.723Z,3.30
2022-11-23T20:41:35.316Z,3.20
2022-11-23T20:44:06.616Z,3.10
2022-11-23T20:49:21.670Z,3.10
2022-11-23T20:51:49.068Z,3.10
2022-11-23T20:54:16.132Z,3.00
2022-11-23T20:56:43.680Z,2.90
2022-11-23T20:59:12.458Z,2.90
2022-11-23T21:01:40.970Z,2.90
2022-11-23T21:04:09.237Z,2.90
2022-11-23T21:06:39.543Z,2.80
2022-11-23T21:09:09.129Z,2.80
2022-11-23T21:11:56.837Z,2.80
2022-11-23T21:14:28.171Z,2.80
2022-11-23T21:16:58.619Z,2.80
2022-11-23T21:19:27.581Z,2.80
2022-11-23T21:21:55.313Z,2.80
2022-11-23T21:24:22.783Z,2.80
2022-11-23T21:26:50.218Z,2.80
2022-11-23T21:29:18.702Z,2.80
2022-11-23T21:31:47.883Z,2.80
2022-11-23T21:34:31.125Z,2.80
2022-11-23T21:36:59.250Z,2.70
2022-11-23T21:39:26.352Z,2.70
2022-11-23T21:41:54.355Z,2.70
2022-11-23T21:44:23.122Z,2.60
2022-11-23T21:46:51.234Z,2.60
2022-11-23T21:49:18.383Z,2.60
2022-11-23T21:51:45.990Z,2.60
2022-11-23T21:54:15.987Z,2.60
2022-11-23T21:56:45.912Z,2.60
2022-11-23T21:59:13.792Z,2.60
2022-11-23T22:01:41.981Z,2.60
2022-11-23T22:04:11.959Z,2.60
2022-11-23T22:06:39.920Z,2.60
2022-11-23T22:09:09.554Z,2.70
2022-11-23T22:11:39.538Z,2.60
2022-11-23T22:14:09.198Z,2.60
2022-11-23T22:16:39.296Z,2.50
2022-11-23T22:19:07.200Z,2.50
2022-11-23T22:21:36.439Z,2.50
2022-11-23T22:24:05.567Z,2.50
2022-11-23T22:26:33.098Z,2.50
2022-11-23T22:29:02.779Z,2.50
2022-11-23T22:31:33.272Z,2.50
2022-11-23T22:34:02.083Z,2.50
2022-11-23T22:36:29.674Z,2.40
2022-11-23T22:39:01.564Z,2.40
2022-11-23T22:41:30.791Z,2.40
2022-11-23T22:43:57.835Z,2.30
2022-11-23T22:46:25.617Z,2.30
2022-11-23T22:48:53.632Z,2.30
2022-11-23T22:51:22.727Z,2.30
2022-11-23T22:53:58.915Z,2.30
2022-11-23T22:56:26.826Z,2.20
2022-11-23T22:58:54.215Z,2.20
2022-11-23T23:01:24.223Z,2.10
2022-11-23T23:03:55.567Z,2.10
2022-11-23T23:06:26.150Z,2.00
2022-11-23T23:08:56.563Z,2.00
2022-11-23T23:11:24.805Z,1.90
2022-11-23T23:13:52.640Z,2.00
2022-11-23T23:16:20.476Z,2.00
2022-11-23T23:18:47.589Z,1.90
2022-11-23T23:21:17.651Z,1.90
2022-11-23T23:23:46.987Z,1.90
2022-11-23T23:26:16.159Z,1.80
2022-11-23T23:28:43.455Z,1.80
2022-11-23T23:31:13.988Z,1.80
2022-11-23T23:33:41.106Z,1.80
2022-11-23T23:36:13.066Z,1.80
2022-11-23T23:38:40.842Z,1.80
2022-11-23T23:41:10.016Z,1.80
2022-11-23T23:43:37.457Z,1.80
2022-11-23T23:46:06.948Z,1.80
2022-11-23T23:48:36.399Z,1.80
2022-11-23T23:51:07.033Z,1.70
2022-11-23T23:53:34.940Z,1.70
2022-11-23T23:56:05.355Z,1.70
2022-11-23T23:58:32.587Z,1.70
